Shin-oh Maru — JG5594 — position and weather

sailwx.info

Track history (hours):
 
Tides and Currents Weather Stations Pressure Air Temp Water Temp Dewpoint Dewpoint Depression Visibility Wind Speed Wind Dir Waves Ship Positions

Shin-oh Maru

Last reported at 2014-Oct-28 17:11 UTC. Time now 2014-Oct-30 19:06 UTC.
Position N 34°56' E 140°11'.

Length 161 m; draft 7 m.

Type: Ship (hazmat cat A). MMSI: 431100859.

Date/timePositionNaut miles runAvg speedWind from/ knotsBaromVisibWave heightAir tempDewpointWater temp
2014-Oct-28 17:11N 34°56' E 140°11'2414.4
2014-Oct-28 15:33N 34°58' E 139°42'1717.7
2014-Oct-28 14:33N 35°16' E 139°46'1313.3
2014-Oct-28 13:34N 35°29' E 139°49'6 1.0
2014-Oct-28 07:33N 35°35' E 139°48'1313.4
2014-Oct-28 06:33N 35°22' E 139°45'1312.8
2014-Oct-28 05:32N 35°08' E 139°46'  
2014-Oct-25 16:24N 35°09' E 139°45'1012.4
2014-Oct-25 15:33N 35°19' E 139°43'1515.0
2014-Oct-25 14:34N 35°33' E 139°51'6 6.3
2014-Oct-25 13:33N 35°38' E 139°46'0 0.0
2014-Oct-25 12:33N 35°38' E 139°46'0 0.0
2014-Oct-25 11:23N 35°38' E 139°46'0 0.0
2014-Oct-25 08:29N 35°38' E 139°46'1111.9
2014-Oct-25 07:33N 35°27' E 139°50'1212.1
2014-Oct-25 06:33N 35°15' E 139°47'  
2014-Oct-22 16:19N 34°56' E 139°43'1520.2
2014-Oct-22 15:33N 35°11' E 139°46'1313.2
2014-Oct-22 14:33N 35°24' E 139°43'1312.8
2014-Oct-22 13:32N 35°37' E 139°46'1 0.1
2014-Oct-22 08:33N 35°38' E 139°46'1010.4
2014-Oct-22 07:33N 35°29' E 139°53'1313.4
2014-Oct-22 06:33N 35°18' E 139°45'1514.5
2014-Oct-22 05:33N 35°03' E 139°45'  
2014-Oct-19 14:33N 35°11' E 139°46'1413.5
2014-Oct-19 13:33N 35°25' E 139°43'1312.5
2014-Oct-19 12:33N 35°37' E 139°46'2 0.3
2014-Oct-19 07:33N 35°36' E 139°47'1312.9
2014-Oct-19 06:33N 35°23' E 139°46'1111.1
2014-Oct-19 05:34N 35°12' E 139°47'  
Track history (hours):
 
Tides and Currents Weather Stations Pressure Air Temp Water Temp Dewpoint Dewpoint Depression Visibility Wind Speed Wind Dir Waves Ship Positions

Shin-oh Maru

Last reported at 2014-Oct-28 17:11 UTC. Time now 2014-Oct-30 19:06 UTC.
Position N 34°56' E 140°11'.

Length 161 m; draft 7 m.

Type: Ship (hazmat cat A). MMSI: 431100859.

Date/timePositionNaut miles runAvg speedWind from/ knotsBaromVisibWave heightAir tempDewpointWater temp
2014-Oct-28 17:11N 34°56' E 140°11'2414.4
2014-Oct-28 15:33N 34°58' E 139°42'1717.7
2014-Oct-28 14:33N 35°16' E 139°46'1313.3
2014-Oct-28 13:34N 35°29' E 139°49'6 1.0
2014-Oct-28 07:33N 35°35' E 139°48'1313.4
2014-Oct-28 06:33N 35°22' E 139°45'1312.8
2014-Oct-28 05:32N 35°08' E 139°46'  
2014-Oct-25 16:24N 35°09' E 139°45'1012.4
2014-Oct-25 15:33N 35°19' E 139°43'1515.0
2014-Oct-25 14:34N 35°33' E 139°51'6 6.3
2014-Oct-25 13:33N 35°38' E 139°46'0 0.0
2014-Oct-25 12:33N 35°38' E 139°46'0 0.0
2014-Oct-25 11:23N 35°38' E 139°46'0 0.0
2014-Oct-25 08:29N 35°38' E 139°46'1111.9
2014-Oct-25 07:33N 35°27' E 139°50'1212.1
2014-Oct-25 06:33N 35°15' E 139°47'  
2014-Oct-22 16:19N 34°56' E 139°43'1520.2
2014-Oct-22 15:33N 35°11' E 139°46'1313.2
2014-Oct-22 14:33N 35°24' E 139°43'1312.8
2014-Oct-22 13:32N 35°37' E 139°46'1 0.1
2014-Oct-22 08:33N 35°38' E 139°46'1010.4
2014-Oct-22 07:33N 35°29' E 139°53'1313.4
2014-Oct-22 06:33N 35°18' E 139°45'1514.5
2014-Oct-22 05:33N 35°03' E 139°45'  
2014-Oct-19 14:33N 35°11' E 139°46'1413.5
2014-Oct-19 13:33N 35°25' E 139°43'1312.5
2014-Oct-19 12:33N 35°37' E 139°46'2 0.3
2014-Oct-19 07:33N 35°36' E 139°47'1312.9
2014-Oct-19 06:33N 35°23' E 139°46'1111.1
2014-Oct-19 05:34N 35°12' E 139°47'  

Dump ship's entire track history